Time;durP1;ratioP1;P1;durP2;ratioP2;P2;SDS_P1;SDS_P2;PMS_P1;PMS_P2;Temp;Humidity;BMP_temperature;BMP_pressure;BME280_temperature;BME280_humidity;BME280_pressure;Samples;Min_cycle;Max_cycle;Signal;HPM_P1;HPM_P2
2021/12/30 00:01:33;;;;;;;56.70;29.17;;;;;;;7.65;100.00;98694.28;5090858;28;20234;-75
2021/12/30 00:04:00;;;;;;;60.87;29.73;;;;;;;7.64;100.00;98693.44;5092082;28;20210;-75
2021/12/30 00:06:29;;;;;;;62.10;30.10;;;;;;;7.70;100.00;98694.97;5092000;28;20240;-75
2021/12/30 00:08:57;;;;;;;56.47;30.47;;;;;;;7.69;100.00;98688.22;5092447;28;20195;-75
2021/12/30 00:11:24;;;;;;;57.27;30.30;;;;;;;7.66;100.00;98693.38;5092051;28;20192;-75
2021/12/30 00:13:51;;;;;;;54.80;29.97;;;;;;;7.65;100.00;98696.84;5092485;28;20215;-75
2021/12/30 00:16:19;;;;;;;47.13;26.43;;;;;;;7.56;100.00;98697.09;5092573;28;20203;-75
2021/12/30 00:18:47;;;;;;;45.20;26.20;;;;;;;7.56;100.00;98702.22;5092716;28;20202;-74
2021/12/30 00:21:14;;;;;;;43.17;24.73;;;;;;;7.53;100.00;98703.13;5092271;28;20206;-75
2021/12/30 00:23:41;;;;;;;48.50;24.70;;;;;;;7.43;100.00;98686.44;5092694;28;20207;-75
2021/12/30 00:26:09;;;;;;;36.40;21.27;;;;;;;7.51;100.00;98698.94;5092376;28;20203;-75
2021/12/30 00:28:36;;;;;;;29.43;19.57;;;;;;;7.53;100.00;98697.19;5092229;28;20199;-75
2021/12/30 00:31:03;;;;;;;25.17;16.90;;;;;;;7.47;100.00;98692.25;5092679;28;20664;-75
2021/12/30 00:33:34;;;;;;;25.20;15.30;;;;;;;7.46;100.00;98685.50;5092208;28;20218;-75
2021/12/30 00:36:02;;;;;;;19.90;14.93;;;;;;;7.38;100.00;98668.72;5091351;28;20207;-75
2021/12/30 00:38:29;;;;;;;20.13;14.10;;;;;;;7.57;100.00;98696.22;5092010;28;20241;-74
2021/12/30 00:40:56;;;;;;;18.00;13.80;;;;;;;7.56;100.00;98697.09;5092564;28;20655;-75
2021/12/30 00:43:23;;;;;;;17.33;13.07;;;;;;;7.58;100.00;98691.06;5092281;28;20195;-74
2021/12/30 00:45:49;;;;;;;21.17;13.50;;;;;;;7.58;100.00;98691.06;5092457;28;20678;-75
2021/12/30 00:48:16;;;;;;;13.40;11.03;;;;;;;7.62;100.00;98702.03;5092188;28;20196;-75
2021/12/30 00:50:47;;;;;;;18.47;13.60;;;;;;;7.63;100.00;98693.47;5091890;28;20199;-75
2021/12/30 00:53:14;;;;;;;15.37;12.67;;;;;;;7.56;100.00;98682.63;5092058;28;20195;-75
2021/12/30 00:55:42;;;;;;;15.43;12.07;;;;;;;7.64;100.00;98695.16;5091815;28;20215;-75
2021/12/30 00:58:10;;;;;;;19.47;11.87;;;;;;;7.60;100.00;98694.41;5092217;28;20218;-75
2021/12/30 01:00:40;;;;;;;12.10;10.80;;;;;;;7.63;100.00;98698.56;5091760;28;20199;-74
2021/12/30 01:03:07;;;;;;;17.30;10.93;;;;;;;7.62;100.00;98704.56;5091706;28;20223;-75
2021/12/30 01:05:35;;;;;;;15.03;11.23;;;;;;;7.67;100.00;98711.22;5091638;28;20663;-73
2021/12/30 01:08:03;;;;;;;16.50;11.60;;;;;;;7.64;100.00;98707.91;5092029;28;20682;-73
2021/12/30 01:10:31;;;;;;;16.00;10.57;;;;;;;7.58;100.00;98695.34;5091565;28;20191;-73
2021/12/30 01:13:04;;;;;;;12.50;11.00;;;;;;;7.68;100.00;98706.94;5091649;28;20195;-73
2021/12/30 01:15:35;;;;;;;15.37;10.77;;;;;;;7.71;100.00;98711.94;5091488;28;20308;-73
2021/12/30 01:20:46;;;;;;;11.93;9.57;;;;;;;7.72;100.00;98706.78;5090019;28;20202;-73
2021/12/30 01:23:15;;;;;;;9.60;8.70;;;;;;;7.62;100.00;98689.28;5090972;28;20203;-73
2021/12/30 01:25:41;;;;;;;12.57;9.83;;;;;;;7.63;100.00;98688.38;5090042;28;20206;-73
2021/12/30 01:28:08;;;;;;;10.27;8.67;;;;;;;7.69;100.00;98703.53;5091581;28;20200;-73
2021/12/30 01:30:35;;;;;;;14.90;9.53;;;;;;;7.65;100.00;98705.31;5091221;28;20199;-73
2021/12/30 01:33:02;;;;;;;9.77;8.87;;;;;;;7.64;100.00;98710.47;5091440;28;20218;-73
2021/12/30 01:35:30;;;;;;;9.50;8.70;;;;;;;7.65;100.00;98717.25;5091511;28;20219;-73
2021/12/30 01:38:00;;;;;;;8.67;7.83;;;;;;;7.61;100.00;98705.44;5091089;28;20203;-73
2021/12/30 01:40:29;;;;;;;8.53;7.77;;;;;;;7.62;100.00;98712.22;5091420;28;20192;-73
2021/12/30 01:42:56;;;;;;;8.27;7.67;;;;;;;7.63;100.00;98709.63;5091073;28;20218;-73
2021/12/30 01:45:23;;;;;;;8.27;7.60;;;;;;;7.65;100.00;98722.34;5087743;28;20201;-73
2021/12/30 01:47:52;;;;;;;7.77;7.23;;;;;;;7.60;100.00;98713.97;5088814;28;20195;-76
2021/12/30 01:50:20;;;;;;;8.37;7.67;;;;;;;7.59;100.00;98717.44;5089600;28;20520;-75
2021/12/30 01:52:47;;;;;;;7.77;6.93;;;;;;;7.57;100.00;98719.16;5089371;28;20191;-75
2021/12/30 01:55:16;;;;;;;7.00;6.40;;;;;;;7.58;100.00;98731.03;5089363;28;20694;-75
2021/12/30 01:57:45;;;;;;;7.47;6.97;;;;;;;7.58;100.00;98725.94;5089281;28;20674;-75
2021/12/30 02:00:15;;;;;;;5.63;5.23;;;;;;;7.48;100.00;98709.22;5089217;28;20214;-75
2021/12/30 02:02:42;;;;;;;6.67;6.07;;;;;;;7.55;100.00;98726.03;5089541;28;20223;-75
2021/12/30 02:05:10;;;;;;;6.23;5.73;;;;;;;7.57;100.00;98731.91;5089137;28;20194;-75
2021/12/30 02:07:37;;;;;;;6.43;5.93;;;;;;;7.60;100.00;98731.81;5089104;28;20206;-75
2021/12/30 02:10:05;;;;;;;7.03;6.10;;;;;;;7.60;100.00;98740.31;5088822;28;20206;-75
2021/12/30 02:12:34;;;;;;;6.73;6.23;;;;;;;7.62;100.00;98737.75;5089349;28;20274;-75
2021/12/30 02:15:03;;;;;;;7.27;6.70;;;;;;;7.64;100.00;98747.00;5088605;28;20218;-75
2021/12/30 02:17:30;;;;;;;6.77;6.17;;;;;;;7.67;100.00;98740.97;5088955;28;20211;-75
2021/12/30 02:19:59;;;;;;;7.77;7.17;;;;;;;7.67;100.00;98743.53;5088437;28;20206;-75
2021/12/30 02:22:27;;;;;;;7.53;6.93;;;;;;;7.64;100.00;98747.00;5089771;28;20253;-75
2021/12/30 02:24:54;;;;;;;7.00;6.50;;;;;;;7.72;100.00;98751.91;5090590;28;20203;-76
2021/12/30 02:27:21;;;;;;;6.17;5.67;;;;;;;7.62;100.00;98737.75;5090924;28;20364;-75
2021/12/30 02:29:48;;;;;;;6.13;5.73;;;;;;;7.67;100.00;98746.91;5090897;28;20206;-75
2021/12/30 02:32:15;;;;;;;5.50;5.10;;;;;;;7.63;100.00;98744.50;5090460;28;20200;-75
2021/12/30 02:34:42;;;;;;;6.03;5.73;;;;;;;7.64;100.00;98746.16;5090913;28;20219;-75
2021/12/30 02:37:11;;;;;;;6.13;5.73;;;;;;;7.66;100.00;98749.50;5090565;28;20229;-75
2021/12/30 02:39:39;;;;;;;6.33;5.93;;;;;;;7.68;100.00;98758.81;5090761;28;20385;-75
2021/12/30 02:42:06;;;;;;;6.10;5.60;;;;;;;7.68;100.00;98757.97;5090541;28;20245;-76
2021/12/30 02:44:35;;;;;;;5.40;5.10;;;;;;;7.64;100.00;98754.66;5090725;28;20701;-75
2021/12/30 02:47:02;;;;;;;5.80;5.40;;;;;;;7.65;100.00;98763.16;5090490;28;20231;-75
2021/12/30 02:49:29;;;;;;;4.70;4.37;;;;;;;7.61;100.00;98761.56;5090486;28;20199;-75
2021/12/30 02:51:56;;;;;;;5.03;4.73;;;;;;;7.60;100.00;98764.97;5090735;28;20685;-75
2021/12/30 02:54:25;;;;;;;5.07;4.77;;;;;;;7.59;100.00;98778.63;5090466;28;20666;-75
2021/12/30 02:56:52;;;;;;;4.43;4.10;;;;;;;7.64;100.00;98776.78;5090613;28;20208;-75
2021/12/30 02:59:19;;;;;;;5.13;4.63;;;;;;;7.60;100.00;98780.28;5091758;28;20204;-75
2021/12/30 03:01:46;;;;;;;4.97;4.67;;;;;;;7.58;100.00;98776.94;5094236;28;20702;-75
2021/12/30 03:04:13;;;;;;;4.33;4.03;;;;;;;7.56;100.00;98776.16;5093883;28;20195;-75
2021/12/30 03:06:40;;;;;;;3.73;3.53;;;;;;;7.54;100.00;98781.31;5094134;28;20204;-75
2021/12/30 03:09:07;;;;;;;3.77;3.57;;;;;;;7.52;100.00;98777.13;5093900;28;20195;-73
2021/12/30 03:11:36;;;;;;;4.43;4.00;;;;;;;7.55;100.00;98794.91;5093953;28;20195;-75
2021/12/30 03:14:03;;;;;;;4.20;4.00;;;;;;;7.55;100.00;98788.09;5093925;28;20202;-72
2021/12/30 03:16:32;;;;;;;3.43;3.23;;;;;;;7.54;100.00;98790.66;5091485;28;20215;-75
2021/12/30 03:18:59;;;;;;;3.63;3.43;;;;;;;7.60;100.00;98790.50;5092853;28;20227;-75
2021/12/30 03:21:27;;;;;;;4.10;3.90;;;;;;;7.61;100.00;98799.81;5093622;28;20558;-75
2021/12/30 03:23:58;;;;;;;4.87;4.57;;;;;;;7.64;100.00;98804.84;5093787;28;20205;-76
2021/12/30 03:26:26;;;;;;;4.17;3.93;;;;;;;7.63;100.00;98805.69;5093674;28;20591;-76
2021/12/30 03:28:54;;;;;;;4.00;3.80;;;;;;;7.62;100.00;98799.78;5093845;28;20607;-75
2021/12/30 03:31:23;;;;;;;4.03;3.83;;;;;;;7.61;100.00;98803.22;5093439;28;20199;-75
2021/12/30 03:33:51;;;;;;;3.20;3.10;;;;;;;7.63;100.00;98811.66;5093598;28;20199;-76
2021/12/30 03:36:19;;;;;;;4.10;3.90;;;;;;;7.57;100.00;98795.69;5093373;28;20215;-76
2021/12/30 03:38:49;;;;;;;3.47;3.33;;;;;;;7.55;100.00;98802.53;5093620;28;20575;-76
2021/12/30 03:41:19;;;;;;;4.83;4.63;;;;;;;7.69;100.00;98820.88;5093017;28;20663;-75
2021/12/30 03:43:46;;;;;;;4.60;4.30;;;;;;;7.73;100.00;98825.81;5092123;28;20667;-76
2021/12/30 03:46:15;;;;;;;5.43;4.60;;;;;;;7.69;100.00;98826.78;5093442;28;20196;-75
2021/12/30 03:48:44;;;;;;;4.33;4.03;;;;;;;7.66;100.00;98831.97;5093532;28;21521;-76
2021/12/30 03:51:21;;;;;;;4.07;3.70;;;;;;;7.68;100.00;98831.94;5090551;28;20206;-75
2021/12/30 03:53:50;;;;;;;3.53;3.40;;;;;;;7.70;100.00;98837.81;5092936;28;20284;-76
2021/12/30 03:56:19;;;;;;;4.50;4.20;;;;;;;7.69;100.00;98831.88;5092735;28;20611;-76
2021/12/30 03:58:48;;;;;;;4.30;4.10;;;;;;;7.69;100.00;98839.53;5092718;28;20204;-76
2021/12/30 04:01:19;;;;;;;4.13;3.90;;;;;;;7.64;100.00;98850.75;5092763;28;20219;-76
2021/12/30 04:03:47;;;;;;;4.00;3.80;;;;;;;7.62;100.00;98849.97;5092847;28;20210;-75
2021/12/30 04:06:14;;;;;;;4.43;4.23;;;;;;;7.46;100.00;98829.16;5092128;28;20198;-75
2021/12/30 04:08:42;;;;;;;3.93;3.63;;;;;;;7.65;100.00;98852.44;5091340;28;20195;-76
2021/12/30 04:11:09;;;;;;;3.50;3.30;;;;;;;7.54;100.00;98846.75;5091003;28;20203;-75
2021/12/30 04:13:37;;;;;;;3.27;3.17;;;;;;;7.56;100.00;98865.44;5090781;28;20218;-76
2021/12/30 04:16:05;;;;;;;3.63;3.20;;;;;;;7.54;100.00;98877.38;5089524;28;20216;-69
2021/12/30 04:18:33;;;;;;;3.10;2.90;;;;;;;7.55;100.00;98884.16;5089397;28;20208;-69
2021/12/30 04:21:01;;;;;;;2.73;2.63;;;;;;;7.58;100.00;98889.19;5090767;28;20574;-69
2021/12/30 04:23:29;;;;;;;3.40;3.20;;;;;;;7.56;100.00;98885.84;5090450;28;20253;-69
2021/12/30 04:25:56;;;;;;;3.63;3.43;;;;;;;7.57;100.00;98897.69;5090665;28;20663;-69
2021/12/30 04:28:23;;;;;;;3.87;3.67;;;;;;;7.64;100.00;98894.13;5091970;28;20635;-69
2021/12/30 04:30:50;;;;;;;3.93;3.73;;;;;;;7.56;100.00;98896.03;5092275;28;20199;-69
2021/12/30 04:33:17;;;;;;;3.30;3.20;;;;;;;7.63;100.00;98903.47;5092446;28;20199;-69
2021/12/30 04:35:45;;;;;;;3.67;3.47;;;;;;;7.67;100.00;98911.88;5092026;28;20254;-69
2021/12/30 04:38:12;;;;;;;4.23;4.03;;;;;;;7.68;100.00;98911.03;5086875;28;20281;-69
2021/12/30 04:40:39;;;;;;;4.00;3.70;;;;;;;7.68;100.00;98914.41;5092054;28;20200;-69
2021/12/30 04:43:06;;;;;;;4.83;3.70;;;;;;;7.69;100.00;98922.91;5092451;28;20195;-68
2021/12/30 04:45:32;;;;;;;4.03;3.73;;;;;;;7.74;100.00;98926.16;5092072;28;20198;-69
2021/12/30 04:47:59;;;;;;;3.67;3.47;;;;;;;7.63;100.00;98913.69;5092044;28;20204;-69
2021/12/30 04:50:26;;;;;;;3.03;2.87;;;;;;;7.72;100.00;98933.03;5092176;28;20206;-69
2021/12/30 04:52:54;;;;;;;3.47;3.17;;;;;;;7.67;100.00;98924.63;5091729;28;20586;-69
2021/12/30 04:55:21;;;;;;;3.67;3.47;;;;;;;7.78;100.00;98945.63;5092049;28;20227;-69
2021/12/30 04:57:48;;;;;;;3.83;3.23;;;;;;;7.75;100.00;98932.94;5092060;28;20690;-70
2021/12/30 05:00:15;;;;;;;3.30;3.10;;;;;;;7.78;100.00;98948.19;5091931;28;20206;-69
2021/12/30 05:03:07;;;;;;;2.67;2.57;;;;;;;7.78;100.00;98953.28;5091664;28;20222;-69
2021/12/30 05:05:34;;;;;;;2.47;2.37;;;;;;;7.74;100.00;98954.22;5091822;28;20192;-69
2021/12/30 05:08:02;;;;;;;2.30;2.10;;;;;;;7.68;100.00;98967.16;5091739;28;20202;-69
2021/12/30 05:10:29;;;;;;;1.90;1.80;;;;;;;7.59;100.00;98968.22;5089554;28;20204;-69
2021/12/30 05:12:56;;;;;;;2.10;2.00;;;;;;;7.52;100.00;98976.06;5091447;28;20211;-69
2021/12/30 05:15:23;;;;;;;2.97;2.80;;;;;;;7.46;100.00;98973.66;5090645;28;20203;-69
2021/12/30 05:17:50;;;;;;;3.93;3.53;;;;;;;7.45;100.00;98974.53;5091306;28;20221;-69
2021/12/30 05:20:17;;;;;;;3.10;2.90;;;;;;;7.39;100.00;98983.16;5091776;28;20663;-69
2021/12/30 05:22:44;;;;;;;5.20;4.83;;;;;;;7.34;100.00;98988.34;5091033;28;20199;-69
2021/12/30 05:25:14;;;;;;;4.80;4.50;;;;;;;7.33;100.00;98996.88;5091620;28;20687;-69
2021/12/30 05:27:41;;;;;;;8.93;5.57;;;;;;;7.25;100.00;98996.22;5091650;28;20663;-69
2021/12/30 05:30:11;;;;;;;5.93;4.97;;;;;;;7.25;100.00;98993.69;5091198;28;20199;-69
2021/12/30 05:32:39;;;;;;;5.20;4.90;;;;;;;7.13;100.00;98993.97;5091461;28;20203;-69
2021/12/30 05:35:08;;;;;;;4.40;4.20;;;;;;;7.19;100.00;99008.28;5091080;28;20204;-69
2021/12/30 05:37:35;;;;;;;5.37;5.07;;;;;;;7.14;100.00;99010.91;5091473;28;20212;-68
2021/12/30 05:40:02;;;;;;;3.03;2.93;;;;;;;7.13;100.00;99009.25;5091216;28;20202;-69
2021/12/30 05:42:31;;;;;;;3.60;3.50;;;;;;;7.05;100.00;99000.94;5091329;28;20202;-69
2021/12/30 05:44:58;;;;;;;5.10;4.90;;;;;;;7.15;100.00;99022.81;5090468;28;20686;-73
2021/12/30 05:47:24;;;;;;;3.80;3.60;;;;;;;7.15;100.00;99027.91;5091162;28;20198;-73
2021/12/30 05:49:51;;;;;;;4.33;4.13;;;;;;;7.14;100.00;99036.41;5091264;28;20666;-73
2021/12/30 05:52:18;;;;;;;2.97;2.87;;;;;;;7.13;100.00;99034.75;5091323;28;20236;-73
2021/12/30 05:54:45;;;;;;;2.43;2.33;;;;;;;6.96;100.00;99020.69;5091269;28;20199;-73
2021/12/30 05:57:12;;;;;;;4.23;4.03;;;;;;;7.11;100.00;99051.78;5090738;28;20211;-73
2021/12/30 05:59:41;;;;;;;4.20;3.90;;;;;;;7.11;100.00;99056.88;5091136;28;20195;-73
2021/12/30 06:02:08;;;;;;;5.63;5.23;;;;;;;7.14;100.00;99061.91;5090743;28;20222;-73
2021/12/30 06:04:35;;;;;;;3.30;3.10;;;;;;;7.15;100.00;99058.50;5091147;28;20199;-73
2021/12/30 06:07:01;;;;;;;2.70;2.60;;;;;;;7.21;100.00;99068.53;5090849;28;20202;-73
2021/12/30 06:09:29;;;;;;;2.43;2.23;;;;;;;7.17;100.00;99061.00;5089128;28;20587;-73
2021/12/30 06:11:56;;;;;;;2.23;2.13;;;;;;;7.18;100.00;99078.81;5088657;28;20221;-72
2021/12/30 06:14:22;;;;;;;1.30;1.30;;;;;;;7.25;100.00;99090.56;5088611;28;20199;-73
2021/12/30 06:16:51;;;;;;;1.77;1.67;;;;;;;7.26;100.00;99101.59;5089539;28;20219;-73
2021/12/30 06:19:18;;;;;;;1.90;1.80;;;;;;;7.31;100.00;99107.41;5090330;28;20195;-73
2021/12/30 06:21:45;;;;;;;1.50;1.40;;;;;;;7.32;100.00;99112.50;5090932;28;20203;-73
2021/12/30 06:24:12;;;;;;;1.53;1.50;;;;;;;7.15;100.00;99083.97;5090477;28;20199;-73
2021/12/30 06:26:39;;;;;;;1.40;1.40;;;;;;;7.36;100.00;99128.56;5090636;28;20203;-73
2021/12/30 06:29:06;;;;;;;1.60;1.50;;;;;;;7.36;100.00;99139.63;5090723;28;20207;-73
2021/12/30 06:31:33;;;;;;;1.30;1.30;;;;;;;7.37;100.00;99141.28;5090411;28;20202;-73
2021/12/30 06:34:02;;;;;;;1.50;1.40;;;;;;;7.36;100.00;99144.72;5091805;28;20203;-73
2021/12/30 06:36:28;;;;;;;1.53;1.53;;;;;;;7.39;100.00;99151.47;5094527;28;20798;-73
2021/12/30 06:38:55;;;;;;;1.93;1.83;;;;;;;7.42;100.00;99155.66;5094491;28;20685;-73
2021/12/30 06:41:22;;;;;;;2.53;1.90;;;;;;;7.32;100.00;99153.31;5094378;28;20187;-73
2021/12/30 06:43:49;;;;;;;2.10;2.00;;;;;;;7.38;100.00;99158.25;5094466;28;20196;-73
2021/12/30 06:46:19;;;;;;;2.00;1.90;;;;;;;7.35;100.00;99163.44;5094437;28;20191;-73
2021/12/30 06:48:46;;;;;;;2.27;2.07;;;;;;;7.40;100.00;99176.91;5094589;28;20594;-73
2021/12/30 06:51:17;;;;;;;2.20;2.10;;;;;;;7.27;100.00;99154.28;5094040;28;20208;-73
2021/12/30 06:53:44;;;;;;;2.07;1.97;;;;;;;7.39;100.00;99184.59;5094079;28;20214;-73
2021/12/30 06:56:11;;;;;;;2.00;1.90;;;;;;;7.39;100.00;99185.47;5094184;28;20218;-73
2021/12/30 06:58:38;;;;;;;1.70;1.70;;;;;;;7.40;100.00;99192.22;5094056;28;20217;-73
2021/12/30 07:01:05;;;;;;;2.13;2.03;;;;;;;7.28;100.00;99171.22;5094089;28;20199;-73
2021/12/30 07:03:32;;;;;;;2.37;2.27;;;;;;;7.37;100.00;99197.38;5093800;28;20205;-73
2021/12/30 07:05:59;;;;;;;2.93;2.83;;;;;;;7.34;100.00;99197.44;5092559;28;20225;-73
2021/12/30 07:08:27;;;;;;;1.83;1.80;;;;;;;7.40;100.00;99216.88;5093956;28;20617;-73
2021/12/30 07:10:54;;;;;;;2.10;2.00;;;;;;;7.39;100.00;99218.59;5092522;28;20693;-73
2021/12/30 07:13:21;;;;;;;1.80;1.80;;;;;;;7.42;100.00;99221.94;5093869;28;20563;-73
2021/12/30 07:15:48;;;;;;;1.67;1.57;;;;;;;7.40;100.00;99222.81;5093748;28;20195;-73
2021/12/30 07:18:15;;;;;;;1.50;1.40;;;;;;;7.34;100.00;99234.84;5093602;28;20238;-73
2021/12/30 07:20:42;;;;;;;1.63;1.63;;;;;;;7.30;100.00;99240.91;5093616;28;20230;-69
2021/12/30 07:23:09;;;;;;;2.10;2.00;;;;;;;7.28;100.00;99242.63;5093951;28;20670;-69
2021/12/30 07:25:37;;;;;;;2.13;2.03;;;;;;;7.28;100.00;99242.63;5093579;28;20590;-69
2021/12/30 07:28:05;;;;;;;1.80;1.80;;;;;;;7.17;100.00;99235.16;5093617;28;20195;-69
2021/12/30 07:30:32;;;;;;;2.20;2.10;;;;;;;7.11;100.00;99240.38;5093457;28;20659;-69
2021/12/30 07:32:59;;;;;;;2.53;2.37;;;;;;;7.16;100.00;99247.97;5093422;28;20211;-69
2021/12/30 07:35:26;;;;;;;2.37;2.27;;;;;;;7.08;100.00;99240.44;5093383;28;20191;-69
2021/12/30 07:37:54;;;;;;;3.30;3.10;;;;;;;7.20;100.00;99255.53;5093390;28;20215;-69
2021/12/30 07:40:21;;;;;;;3.20;3.00;;;;;;;7.25;100.00;99269.03;5093503;28;20192;-69
2021/12/30 07:42:49;;;;;;;3.50;3.30;;;;;;;7.27;100.00;99271.56;5092965;28;20199;-69
2021/12/30 07:45:17;;;;;;;3.23;2.93;;;;;;;7.27;100.00;99276.66;5092480;28;20717;-69
2021/12/30 07:47:45;;;;;;;3.00;2.80;;;;;;;7.29;100.00;99275.75;5092822;28;20214;-69
2021/12/30 07:50:13;;;;;;;3.37;3.07;;;;;;;7.27;100.00;99272.38;5091886;28;20199;-69
2021/12/30 07:52:40;;;;;;;3.17;2.97;;;;;;;7.38;100.00;99285.75;5092971;28;20207;-69
2021/12/30 07:55:10;;;;;;;3.13;3.00;;;;;;;7.42;100.00;99295.91;5093284;28;20202;-69
2021/12/30 07:57:38;;;;;;;3.33;3.13;;;;;;;7.42;100.00;99301.00;5092754;28;20207;-69
2021/12/30 08:00:10;;;;;;;5.57;3.17;;;;;;;7.49;100.00;99302.56;5092903;28;20191;-69
2021/12/30 08:02:37;;;;;;;3.63;3.43;;;;;;;7.50;100.00;99296.59;5092691;28;20277;-69
2021/12/30 08:05:05;;;;;;;4.23;3.93;;;;;;;7.52;100.00;99302.50;5091960;28;20203;-72
2021/12/30 08:07:31;;;;;;;3.77;3.47;;;;;;;7.54;100.00;99305.88;5092035;28;20202;-72
2021/12/30 08:09:58;;;;;;;4.27;4.07;;;;;;;7.62;100.00;99314.22;5092170;28;20202;-72
2021/12/30 08:12:25;;;;;;;4.53;4.13;;;;;;;7.56;100.00;99296.50;5092742;28;20206;-72
2021/12/30 08:14:52;;;;;;;4.60;4.30;;;;;;;7.70;100.00;99323.41;5092470;28;20663;-72
2021/12/30 08:17:20;;;;;;;5.17;4.77;;;;;;;7.75;100.00;99325.88;5092679;28;20219;-72
2021/12/30 08:19:48;;;;;;;5.30;4.80;;;;;;;7.78;100.00;99330.91;5091504;28;20205;-72
2021/12/30 08:22:14;;;;;;;6.00;5.40;;;;;;;7.84;100.00;99336.72;5092485;28;20667;-72
2021/12/30 08:24:41;;;;;;;6.47;5.97;;;;;;;7.80;100.00;99339.38;5092610;28;20586;-72
2021/12/30 08:27:12;;;;;;;5.77;5.43;;;;;;;7.84;100.00;99335.88;5092546;28;20199;-72
2021/12/30 08:29:39;;;;;;;5.03;4.53;;;;;;;7.83;100.00;99335.03;5092525;28;20260;-72
2021/12/30 08:32:08;;;;;;;3.67;3.47;;;;;;;7.82;100.00;99338.44;5092195;28;20204;-74
2021/12/30 08:34:36;;;;;;;4.40;4.10;;;;;;;7.78;100.00;99343.66;5091188;28;20191;-74
2021/12/30 08:37:04;;;;;;;6.80;4.57;;;;;;;7.75;100.00;99346.28;5090546;28;20567;-74
2021/12/30 08:39:34;;;;;;;4.97;4.67;;;;;;;7.56;100.00;99324.56;5090848;28;20195;-75
2021/12/30 08:42:01;;;;;;;4.60;4.30;;;;;;;7.74;100.00;99355.66;5091233;28;20287;-74
2021/12/30 08:44:28;;;;;;;4.27;3.97;;;;;;;7.74;100.00;99357.34;5091642;28;20195;-74
2021/12/30 08:46:55;;;;;;;3.50;3.30;;;;;;;7.74;100.00;99354.78;5091452;28;20199;-74
2021/12/30 08:49:22;;;;;;;4.37;3.97;;;;;;;7.74;100.00;99360.75;5092044;28;20195;-74
2021/12/30 08:51:50;;;;;;;3.90;3.70;;;;;;;7.79;100.00;99352.97;5092073;28;20286;-73
2021/12/30 08:54:17;;;;;;;3.43;3.23;;;;;;;7.77;100.00;99360.69;5091904;28;20202;-73
2021/12/30 08:56:44;;;;;;;4.57;4.20;;;;;;;7.78;100.00;99359.81;5091242;28;20211;-73
2021/12/30 08:59:11;;;;;;;3.70;3.40;;;;;;;7.70;100.00;99342.97;5091892;28;20207;-73
2021/12/30 09:01:39;;;;;;;2.83;2.63;;;;;;;7.83;100.00;99362.28;5091997;28;20223;-73
2021/12/30 09:04:05;;;;;;;4.37;4.07;;;;;;;7.80;100.00;99364.88;5090783;28;20272;-73
2021/12/30 09:06:32;;;;;;;3.73;3.43;;;;;;;7.81;100.00;99356.38;5090069;28;20202;-73
2021/12/30 09:09:01;;;;;;;3.23;3.03;;;;;;;7.74;100.00;99350.53;5091606;28;20195;-73
2021/12/30 09:11:27;;;;;;;3.47;3.27;;;;;;;7.89;100.00;99364.69;5091965;28;20199;-73
2021/12/30 09:13:54;;;;;;;3.57;3.40;;;;;;;7.83;100.00;99359.72;5091559;28;20209;-73
2021/12/30 09:16:21;;;;;;;3.30;3.00;;;;;;;7.90;100.00;99374.03;5091686;28;20191;-73
2021/12/30 09:18:48;;;;;;;3.77;3.43;;;;;;;7.80;100.00;99359.78;5091736;28;20209;-73
2021/12/30 09:21:15;;;;;;;3.93;3.73;;;;;;;7.96;100.00;99385.84;5091725;28;20195;-73
2021/12/30 09:23:42;;;;;;;3.67;3.47;;;;;;;8.01;100.00;99384.03;5091567;28;20199;-73
2021/12/30 09:26:10;;;;;;;4.70;4.40;;;;;;;8.03;100.00;99383.13;5091493;28;20203;-73
2021/12/30 09:28:37;;;;;;;3.77;3.50;;;;;;;8.05;100.00;99393.31;5091515;28;20210;-73
2021/12/30 09:31:04;;;;;;;3.70;3.50;;;;;;;8.10;100.00;99384.69;5091379;28;20211;-73
2021/12/30 09:33:31;;;;;;;3.30;3.10;;;;;;;8.12;100.00;99385.50;5091422;28;20195;-73
2021/12/30 09:35:59;;;;;;;3.73;3.43;;;;;;;8.15;100.00;99398.19;5091208;28;20206;-72
2021/12/30 09:38:27;;;;;;;3.50;3.30;;;;;;;8.23;100.00;99383.56;5091283;28;20211;-73
2021/12/30 09:40:56;;;;;;;3.70;3.50;;;;;;;8.26;100.00;99396.28;5091376;28;20195;-73
2021/12/30 09:43:24;;;;;;;3.77;3.47;;;;;;;8.16;100.00;99379.47;5091186;28;20203;-73
2021/12/30 09:45:51;;;;;;;3.47;3.27;;;;;;;8.36;100.00;99394.41;5091541;28;20647;-73
2021/12/30 09:48:19;;;;;;;4.23;3.93;;;;;;;8.42;100.00;99397.66;5091009;28;20659;-73
2021/12/30 09:50:49;;;;;;;3.57;3.37;;;;;;;8.49;100.00;99397.53;5090703;28;20198;-73
2021/12/30 09:53:19;;;;;;;3.47;3.27;;;;;;;8.52;100.00;99402.56;5091244;28;20195;-73
2021/12/30 09:55:46;;;;;;;3.60;3.40;;;;;;;8.49;100.00;99384.75;5091408;28;20583;-73
2021/12/30 09:58:13;;;;;;;3.73;3.40;;;;;;;8.59;100.00;99397.31;5090922;28;20208;-73
2021/12/30 10:00:41;;;;;;;3.77;3.43;;;;;;;8.62;100.00;99398.94;5090313;28;20210;-73
2021/12/30 10:03:08;;;;;;;3.37;3.17;;;;;;;8.59;100.00;99404.13;5089861;28;20611;-73
2021/12/30 10:05:38;;;;;;;4.27;3.83;;;;;;;8.68;100.00;99403.91;5090905;28;20195;-73
2021/12/30 10:08:16;;;;;;;3.37;3.17;;;;;;;8.74;100.00;99416.56;5092411;28;20199;-73
2021/12/30 10:10:46;;;;;;;3.87;3.10;;;;;;;8.79;100.00;99412.16;5095239;28;20560;-73
2021/12/30 10:13:22;;;;;;;2.50;2.40;;;;;;;8.76;100.00;99418.19;5095022;28;20277;-73
2021/12/30 10:15:53;;;;;;;1.60;1.50;;;;;;;8.70;100.00;99417.50;5095011;28;20217;-73
2021/12/30 10:18:20;;;;;;;1.30;1.30;;;;;;;8.69;100.00;99415.81;5094805;28;20221;-73
2021/12/30 10:20:48;;;;;;;1.20;1.20;;;;;;;8.71;100.00;99424.28;5095001;28;20202;-73
2021/12/30 10:23:17;;;;;;;1.50;1.27;;;;;;;8.67;100.00;99423.50;5094904;28;20210;-73
2021/12/30 10:25:46;;;;;;;0.90;0.90;;;;;;;8.71;100.00;99424.28;5094916;28;20677;-73
2021/12/30 10:28:26;;;;;;;0.90;0.90;;;;;;;8.71;100.00;99425.13;5094763;28;20287;-73
2021/12/30 10:30:57;;;;;;;1.53;1.43;;;;;;;8.74;100.00;99424.22;5094839;28;20207;-73
2021/12/30 10:33:26;;;;;;;1.93;1.83;;;;;;;8.78;100.00;99425.84;5094344;28;20241;-73
2021/12/30 10:35:53;;;;;;;2.50;1.60;;;;;;;8.76;100.00;99428.41;5094740;28;20192;-73
2021/12/30 10:38:21;;;;;;;1.87;1.33;;;;;;;8.78;100.00;99430.94;5094533;28;20207;-73
2021/12/30 10:40:51;;;;;;;1.37;1.37;;;;;;;8.78;100.00;99436.91;5094450;28;20227;-74
2021/12/30 10:43:27;;;;;;;1.33;1.33;;;;;;;8.70;100.00;99422.59;5094415;28;20196;-73
2021/12/30 10:46:14;;;;;;;1.40;1.40;;;;;;;8.77;100.00;99436.94;5094682;28;20225;-73
2021/12/30 10:48:53;;;;;;;2.40;2.20;;;;;;;8.70;100.00;99432.81;5094242;28;20194;-73
2021/12/30 10:51:24;;;;;;;1.43;1.43;;;;;;;8.73;100.00;99442.97;5094358;28;20285;-72
2021/12/30 10:53:53;;;;;;;1.50;1.50;;;;;;;8.73;100.00;99443.81;5094346;28;20205;-73
2021/12/30 10:56:32;;;;;;;1.40;1.40;;;;;;;8.64;100.00;99438.06;5094662;28;20217;-73
2021/12/30 10:59:21;;;;;;;3.80;2.20;;;;;;;8.56;100.00;99429.75;5093468;28;20219;-73
2021/12/30 11:01:53;;;;;;;4.90;4.60;;;;;;;8.73;100.00;99453.19;5092729;28;20227;-73
2021/12/30 11:04:21;;;;;;;3.80;3.60;;;;;;;8.69;100.00;99446.50;5094278;28;20203;-73
2021/12/30 11:06:48;;;;;;;3.17;2.97;;;;;;;8.75;100.00;99446.34;5094173;28;20199;-73
2021/12/30 11:09:20;;;;;;;2.40;2.30;;;;;;;8.80;100.00;99454.75;5094133;28;20202;-73
2021/12/30 11:11:53;;;;;;;2.63;2.43;;;;;;;8.80;100.00;99455.59;5093834;28;20218;-73
2021/12/30 11:14:22;;;;;;;2.03;1.93;;;;;;;8.70;100.00;99443.88;5090187;28;20191;-72
2021/12/30 11:17:07;;;;;;;1.98;1.88;;;;;;;8.80;100.00;99449.63;5090729;28;20531;-76
2021/12/30 11:19:36;;;;;;;2.03;1.93;;;;;;;8.80;100.00;99459.88;5091933;28;20227;-77
2021/12/30 11:22:06;;;;;;;2.77;2.40;;;;;;;8.73;100.00;99464.25;5092126;28;20203;-77
2021/12/30 11:24:35;;;;;;;1.95;1.85;;;;;;;8.74;100.00;99462.56;5090507;28;20469;-74
2021/12/30 11:27:05;;;;;;;2.40;2.20;;;;;;;8.79;100.00;99465.84;5088081;28;20203;-74
2021/12/30 11:29:35;;;;;;;2.80;2.50;;;;;;;8.79;100.00;99469.25;5090475;28;20289;-75
2021/12/30 11:32:05;;;;;;;3.77;3.27;;;;;;;8.82;100.00;99473.47;5090146;28;20203;-75
2021/12/30 11:34:32;;;;;;;4.20;3.90;;;;;;;8.83;100.00;99470.00;5089574;28;20203;-74
2021/12/30 11:36:59;;;;;;;3.43;3.23;;;;;;;8.82;100.00;99473.47;5090683;28;20203;-74
2021/12/30 11:39:27;;;;;;;3.17;2.97;;;;;;;8.84;100.00;99476.81;5090452;28;20223;-75